createdAt,value
2018-07-22T04:14:07.732Z,13.40
2018-07-22T04:16:36.759Z,11.55
2018-07-22T04:19:05.828Z,13.70
2018-07-22T04:21:34.864Z,12.82
2018-07-22T04:24:03.949Z,13.55
2018-07-22T04:26:33.012Z,11.88
2018-07-22T04:29:02.061Z,12.45
2018-07-22T04:31:31.126Z,11.55
2018-07-22T04:34:00.189Z,12.18
2018-07-22T04:36:29.242Z,12.40
2018-07-22T04:38:58.332Z,12.05
2018-07-22T04:41:27.452Z,12.20
2018-07-22T04:43:56.519Z,13.00
2018-07-22T04:46:25.591Z,12.37
2018-07-22T04:48:54.628Z,12.20
2018-07-22T04:51:23.736Z,12.82
2018-07-22T04:53:52.780Z,12.40
2018-07-22T04:56:21.859Z,12.47
2018-07-22T04:58:50.979Z,13.27
2018-07-22T05:01:20.037Z,12.37
2018-07-22T05:03:49.160Z,13.93
2018-07-22T05:06:18.191Z,12.30
2018-07-22T05:11:21.461Z,12.10
2018-07-22T05:13:50.534Z,12.00
2018-07-22T05:16:19.276Z,11.97
2018-07-22T05:18:48.292Z,12.73
2018-07-22T05:21:17.396Z,11.00
2018-07-22T05:23:46.460Z,13.83
2018-07-22T05:26:15.585Z,12.55
2018-07-22T05:28:44.657Z,13.10
2018-07-22T05:31:13.775Z,14.73
2018-07-22T05:33:42.831Z,12.27
2018-07-22T05:36:11.918Z,11.30
2018-07-22T05:38:41.013Z,11.67
2018-07-22T05:41:10.135Z,12.90
2018-07-22T05:43:39.256Z,11.53
2018-07-22T05:46:08.288Z,11.13
2018-07-22T05:48:37.819Z,10.63
2018-07-22T05:51:06.894Z,10.43
2018-07-22T05:53:35.915Z,10.90
2018-07-22T05:56:05.008Z,10.70
2018-07-22T05:58:34.092Z,11.03
2018-07-22T06:01:03.152Z,10.77
2018-07-22T06:03:32.225Z,11.20
2018-07-22T06:06:01.328Z,9.93
2018-07-22T06:08:30.385Z,10.40
2018-07-22T06:10:59.460Z,10.20
2018-07-22T06:13:28.500Z,10.77
2018-07-22T06:15:57.606Z,13.30
2018-07-22T06:18:26.705Z,10.70
2018-07-22T06:20:55.772Z,10.03
2018-07-22T06:23:24.870Z,11.30
2018-07-22T06:25:53.984Z,9.60
2018-07-22T06:28:23.043Z,10.07
2018-07-22T06:30:52.132Z,10.80
2018-07-22T06:33:21.188Z,10.67
2018-07-22T06:35:50.379Z,11.47
2018-07-22T06:38:19.121Z,11.37
2018-07-22T06:40:48.167Z,9.93
2018-07-22T06:43:17.258Z,10.77
2018-07-22T06:45:46.345Z,10.60
2018-07-22T06:48:15.402Z,9.70
2018-07-22T06:50:44.540Z,11.83
2018-07-22T06:53:13.716Z,13.00
2018-07-22T06:55:42.822Z,10.67
2018-07-22T06:58:11.885Z,10.17
2018-07-22T07:00:41.119Z,11.93
2018-07-22T07:03:10.169Z,10.30
2018-07-22T07:05:39.442Z,9.70
2018-07-22T07:08:08.588Z,11.17
2018-07-22T07:10:38.085Z,10.93
2018-07-22T07:13:07.761Z,11.23
2018-07-22T07:15:37.737Z,9.50
2018-07-22T07:18:07.373Z,10.80
2018-07-22T07:20:36.988Z,9.60
2018-07-22T07:23:06.602Z,9.90
2018-07-22T07:25:36.178Z,9.40
2018-07-22T07:28:05.850Z,10.70
2018-07-22T07:30:35.777Z,10.30
2018-07-22T07:33:05.374Z,10.80
2018-07-22T07:35:35.053Z,11.00
2018-07-22T07:38:04.709Z,11.33
2018-07-22T07:40:33.828Z,10.57
2018-07-22T07:43:03.002Z,10.27
2018-07-22T07:45:32.830Z,10.50
2018-07-22T07:48:02.809Z,10.30
2018-07-22T07:50:33.563Z,11.30
2018-07-22T07:53:03.683Z,11.53
2018-07-22T07:55:34.197Z,9.03
2018-07-22T07:58:04.701Z,10.33
2018-07-22T08:00:35.526Z,9.77
2018-07-22T08:03:07.084Z,9.20
2018-07-22T08:05:38.029Z,9.83
2018-07-22T08:08:09.008Z,9.77
2018-07-22T08:10:41.042Z,10.20
2018-07-22T08:13:11.899Z,11.40
2018-07-22T08:15:42.174Z,11.77
2018-07-22T08:18:13.177Z,10.77
2018-07-22T08:20:44.245Z,11.67
2018-07-22T08:23:15.895Z,10.70
2018-07-22T08:25:46.515Z,10.30
2018-07-22T08:29:27.499Z,11.00
2018-07-22T08:31:57.987Z,10.40
2018-07-22T08:34:28.576Z,11.60
2018-07-22T08:36:59.397Z,12.33
2018-07-22T08:39:30.475Z,11.53
2018-07-22T08:42:01.738Z,11.13
2018-07-22T08:44:32.668Z,11.23
2018-07-22T08:47:03.091Z,11.63
2018-07-22T08:49:33.196Z,10.90
2018-07-22T08:52:03.193Z,10.87
2018-07-22T08:54:33.684Z,11.20
2018-07-22T08:57:03.726Z,10.07
2018-07-22T08:59:33.782Z,10.00
2018-07-22T09:02:04.881Z,9.53
2018-07-22T09:04:36.030Z,10.23
2018-07-22T09:07:06.318Z,9.90
2018-07-22T09:09:36.974Z,10.17
2018-07-22T09:12:07.926Z,10.13
2018-07-22T09:14:38.500Z,10.50
2018-07-22T09:17:08.821Z,9.83
2018-07-22T09:19:38.564Z,10.00
2018-07-22T09:22:08.651Z,10.93
2018-07-22T09:24:39.265Z,9.80
2018-07-22T09:27:09.998Z,10.80
2018-07-22T09:29:40.023Z,10.23
2018-07-22T09:32:09.815Z,10.70
2018-07-22T09:34:39.404Z,11.43
2018-07-22T09:37:09.732Z,9.60
2018-07-22T09:39:39.953Z,11.30
2018-07-22T09:42:10.113Z,10.87
2018-07-22T09:44:40.353Z,10.80
2018-07-22T09:47:11.006Z,12.00
2018-07-22T09:49:41.539Z,12.13
2018-07-22T09:52:11.845Z,11.37
2018-07-22T09:54:42.624Z,12.20
2018-07-22T09:57:12.023Z,13.07
2018-07-22T09:59:42.704Z,10.90
2018-07-22T10:02:12.358Z,11.30
2018-07-22T10:04:42.566Z,11.30
2018-07-22T10:07:12.628Z,11.60
2018-07-22T10:09:43.034Z,10.93
2018-07-22T10:12:13.075Z,12.57
2018-07-22T10:14:43.493Z,12.27
2018-07-22T10:17:13.794Z,12.17
2018-07-22T10:19:44.198Z,12.83
2018-07-22T10:22:14.768Z,12.43
2018-07-22T10:24:45.567Z,12.77
2018-07-22T10:27:16.037Z,11.93
2018-07-22T10:29:45.833Z,12.83
2018-07-22T10:32:15.472Z,12.53
2018-07-22T10:34:46.077Z,11.40
2018-07-22T10:37:16.303Z,12.60
2018-07-22T10:39:46.220Z,13.40
2018-07-22T10:42:17.792Z,12.73
2018-07-22T10:44:48.230Z,12.10
2018-07-22T10:47:18.653Z,11.77
2018-07-22T10:49:49.126Z,12.37
2018-07-22T10:52:20.262Z,12.80
2018-07-22T10:54:51.204Z,11.33
2018-07-22T10:57:22.693Z,11.93
2018-07-22T10:59:52.815Z,12.07
2018-07-22T11:02:23.242Z,13.03
2018-07-22T11:04:54.051Z,13.37
2018-07-22T11:07:25.076Z,13.23
2018-07-22T11:09:55.581Z,13.57
2018-07-22T11:12:26.062Z,16.07
2018-07-22T11:14:56.318Z,15.20
2018-07-22T11:17:26.800Z,14.07
2018-07-22T11:19:56.012Z,13.97
2018-07-22T11:22:25.170Z,13.63
2018-07-22T11:24:54.453Z,13.10
2018-07-22T11:30:00.778Z,13.20
2018-07-22T11:32:29.796Z,13.10
2018-07-22T11:34:58.859Z,13.57
2018-07-22T11:37:27.944Z,13.60
2018-07-22T11:39:56.991Z,12.20
2018-07-22T11:42:26.124Z,11.87
2018-07-22T11:44:55.357Z,10.97
2018-07-22T11:47:24.658Z,13.00
2018-07-22T11:49:53.730Z,13.63
2018-07-22T11:52:22.784Z,13.40
2018-07-22T11:54:52.196Z,12.10
2018-07-22T11:57:21.277Z,12.27
2018-07-22T11:59:50.402Z,11.40
2018-07-22T12:02:19.464Z,12.37
2018-07-22T12:04:48.760Z,12.37
2018-07-22T12:07:17.831Z,11.40
2018-07-22T12:09:46.869Z,12.83
2018-07-22T12:12:15.978Z,13.80
2018-07-22T12:14:45.556Z,12.90
2018-07-22T12:17:14.748Z,12.47
2018-07-22T12:19:43.856Z,12.13
2018-07-22T12:22:12.976Z,11.90
2018-07-22T12:24:42.076Z,14.50
2018-07-22T12:27:11.236Z,13.30
2018-07-22T12:29:40.097Z,14.20
2018-07-22T12:32:09.289Z,15.80
2018-07-22T12:34:39.558Z,14.10
2018-07-22T12:37:09.287Z,16.33
2018-07-22T12:39:39.277Z,14.63
2018-07-22T12:42:12.645Z,15.33
2018-07-22T12:44:45.365Z,14.03
2018-07-22T12:47:16.043Z,15.67
2018-07-22T12:49:46.394Z,16.40
2018-07-22T12:52:18.165Z,15.50
2018-07-22T12:54:49.289Z,15.63
2018-07-22T12:57:20.804Z,15.93
2018-07-22T12:59:52.336Z,16.20
2018-07-22T13:02:22.899Z,16.47
2018-07-22T13:04:53.732Z,15.97
2018-07-22T13:07:24.549Z,17.67
2018-07-22T13:09:55.186Z,18.50
2018-07-22T13:12:25.817Z,20.23
2018-07-22T13:14:57.167Z,19.97
2018-07-22T13:17:27.668Z,18.43
2018-07-22T13:19:58.979Z,19.77
2018-07-22T13:22:30.895Z,19.67
2018-07-22T13:25:02.122Z,20.33
2018-07-22T13:27:32.733Z,19.37
2018-07-22T13:30:04.237Z,18.80
2018-07-22T13:32:35.563Z,18.27
2018-07-22T13:35:07.066Z,18.77
2018-07-22T13:37:38.872Z,18.60
2018-07-22T13:40:09.493Z,16.13
2018-07-22T13:42:40.289Z,16.80
2018-07-22T13:45:12.900Z,16.97
2018-07-22T13:47:45.517Z,18.50
2018-07-22T13:50:17.024Z,16.43
2018-07-22T13:52:47.724Z,17.33
2018-07-22T13:55:18.455Z,16.67
2018-07-22T13:57:51.349Z,18.87
2018-07-22T14:00:23.046Z,20.17
2018-07-22T14:02:54.504Z,20.37
2018-07-22T14:05:26.640Z,23.93
2018-07-22T14:08:00.207Z,21.53
2018-07-22T14:10:33.801Z,21.87
2018-07-22T14:13:06.484Z,21.53
2018-07-22T14:15:38.447Z,23.47
2018-07-22T14:18:10.538Z,23.40
2018-07-22T14:20:42.047Z,26.10
2018-07-22T14:23:12.732Z,28.10
2018-07-22T14:25:43.798Z,24.10
2018-07-22T14:28:14.768Z,25.83
2018-07-22T14:30:47.637Z,26.60
2018-07-22T14:33:18.922Z,25.07
2018-07-22T14:35:49.969Z,21.67
2018-07-22T14:38:22.267Z,20.77
2018-07-22T14:40:54.478Z,20.70
2018-07-22T14:43:23.902Z,20.00
2018-07-22T14:45:53.172Z,21.30
2018-07-22T14:48:22.338Z,18.60
2018-07-22T14:50:51.429Z,18.10
2018-07-22T14:55:49.979Z,18.33
2018-07-22T14:58:19.178Z,17.77
2018-07-22T15:00:48.485Z,16.27
2018-07-22T15:03:17.688Z,18.63
2018-07-22T15:05:46.792Z,21.13
2018-07-22T15:08:15.889Z,18.47
2018-07-22T15:10:44.927Z,20.40
2018-07-22T15:13:13.980Z,20.13
2018-07-22T15:15:43.018Z,19.90
2018-07-22T15:18:12.203Z,21.17
2018-07-22T15:20:41.288Z,19.43
2018-07-22T15:23:10.459Z,19.93
2018-07-22T15:25:39.531Z,24.27
2018-07-22T15:28:08.650Z,21.97
2018-07-22T15:30:37.741Z,20.43
2018-07-22T15:33:06.992Z,21.07
2018-07-22T15:35:36.092Z,19.40
2018-07-22T15:38:05.162Z,19.20
2018-07-22T15:40:34.188Z,19.00
2018-07-22T15:43:03.349Z,18.40
2018-07-22T15:45:32.899Z,19.40
2018-07-22T15:48:01.955Z,19.83
2018-07-22T15:50:31.116Z,18.73
2018-07-22T15:53:00.179Z,19.90
2018-07-22T15:55:29.339Z,18.60
2018-07-22T15:57:58.445Z,20.17
2018-07-22T16:00:27.563Z,22.57
2018-07-22T16:02:56.634Z,19.97
2018-07-22T16:05:25.733Z,21.87
2018-07-22T16:07:54.795Z,20.80
2018-07-22T16:10:23.904Z,22.33
2018-07-22T16:12:53.192Z,22.77
2018-07-22T16:15:22.278Z,23.90
2018-07-22T16:17:51.393Z,24.30
2018-07-22T16:20:21.718Z,22.07
2018-07-22T16:22:50.771Z,23.67
2018-07-22T16:25:19.895Z,21.50
2018-07-22T16:27:49.116Z,21.47
2018-07-22T16:30:18.327Z,22.87
2018-07-22T16:32:47.547Z,24.47
2018-07-22T16:35:16.724Z,20.30
2018-07-22T16:37:45.820Z,20.50
2018-07-22T16:40:14.969Z,22.67
2018-07-22T16:42:44.216Z,21.87
2018-07-22T16:45:13.342Z,21.43
2018-07-22T16:47:42.784Z,21.90
2018-07-22T16:50:11.946Z,21.67
2018-07-22T16:52:41.040Z,19.27
2018-07-22T16:55:10.169Z,20.40
2018-07-22T16:57:39.276Z,20.33
2018-07-22T17:00:08.414Z,23.67
2018-07-22T17:02:37.581Z,21.83
2018-07-22T17:05:06.673Z,22.93
2018-07-22T17:07:35.725Z,24.80
2018-07-22T17:10:04.868Z,22.23
2018-07-22T17:12:33.959Z,22.70
2018-07-22T17:15:03.056Z,23.37
2018-07-22T17:17:31.844Z,24.07
2018-07-22T17:20:00.885Z,21.60
2018-07-22T17:22:30.099Z,25.00
2018-07-22T17:24:59.626Z,22.13
2018-07-22T17:27:28.996Z,22.87
2018-07-22T17:29:58.363Z,24.03
2018-07-22T17:32:27.634Z,22.47
2018-07-22T17:34:57.047Z,22.67
2018-07-22T17:37:27.019Z,20.07
2018-07-22T17:39:59.149Z,22.03
2018-07-22T17:42:30.234Z,21.47
2018-07-22T17:44:59.510Z,20.83
2018-07-22T17:47:30.595Z,21.23
2018-07-22T17:49:59.787Z,21.90
2018-07-22T17:52:29.361Z,22.37
2018-07-22T17:54:58.552Z,22.37
2018-07-22T17:57:27.703Z,22.80
2018-07-22T17:59:56.993Z,22.73
2018-07-22T18:02:26.162Z,21.73
2018-07-22T18:04:55.287Z,22.07
2018-07-22T18:07:24.511Z,21.33
2018-07-22T18:09:53.593Z,21.23
2018-07-22T18:12:22.702Z,20.47
2018-07-22T18:14:51.844Z,21.87
2018-07-22T18:17:20.976Z,21.03
2018-07-22T18:19:50.445Z,21.20
2018-07-22T18:22:19.530Z,21.83
2018-07-22T18:24:48.652Z,21.87
2018-07-22T18:27:17.773Z,21.13
2018-07-22T18:29:47.220Z,23.97
2018-07-22T18:32:16.380Z,21.67
2018-07-22T18:34:45.655Z,22.50
2018-07-22T18:37:14.967Z,22.07
2018-07-22T18:39:43.876Z,21.60
2018-07-22T18:42:12.872Z,21.37
2018-07-22T18:44:41.881Z,20.13
2018-07-22T18:47:11.059Z,22.10
2018-07-22T18:49:40.185Z,22.10
2018-07-22T18:52:09.253Z,20.03
2018-07-22T18:54:38.405Z,20.53
2018-07-22T18:57:07.505Z,17.60
2018-07-22T18:59:37.752Z,18.83
2018-07-22T19:02:06.978Z,17.90
2018-07-22T19:04:36.424Z,19.97
2018-07-22T19:07:05.550Z,18.33
2018-07-22T19:09:34.739Z,17.60
2018-07-22T19:12:03.855Z,18.50
2018-07-22T19:14:32.646Z,17.53
2018-07-22T19:17:01.843Z,17.23
2018-07-22T19:19:30.866Z,19.07
2018-07-22T19:21:59.978Z,15.90
2018-07-22T19:24:29.099Z,18.03
2018-07-22T19:26:58.783Z,17.47
2018-07-22T19:29:27.828Z,18.13
2018-07-22T19:31:56.940Z,18.80
2018-07-22T19:34:26.104Z,18.27
2018-07-22T19:36:55.223Z,17.80
2018-07-22T19:39:24.289Z,20.17
2018-07-22T19:41:53.416Z,18.23
2018-07-22T19:44:22.912Z,17.77
2018-07-22T19:46:52.020Z,20.33
2018-07-22T19:49:21.089Z,18.37
2018-07-22T19:51:50.216Z,18.60
2018-07-22T19:54:19.572Z,19.10
2018-07-22T19:56:48.687Z,19.30
2018-07-22T19:59:17.879Z,19.07
2018-07-22T20:01:47.021Z,18.63
2018-07-22T20:04:16.362Z,19.90
2018-07-22T20:06:45.558Z,19.00
2018-07-22T20:09:14.999Z,18.37
2018-07-22T20:11:44.476Z,19.73
2018-07-22T20:14:13.540Z,19.07
2018-07-22T20:16:42.654Z,18.77
2018-07-22T20:19:11.969Z,20.13
2018-07-22T20:21:41.279Z,19.33
2018-07-22T20:24:10.615Z,19.03
2018-07-22T20:26:39.869Z,18.33
2018-07-22T20:29:09.012Z,19.57
2018-07-22T20:31:38.332Z,20.00
2018-07-22T20:34:08.596Z,20.80
2018-07-22T20:36:38.689Z,22.77
2018-07-22T20:39:15.960Z,21.53
2018-07-22T20:41:44.984Z,21.90
2018-07-22T20:44:14.032Z,19.63
2018-07-22T20:46:43.096Z,19.63
2018-07-22T20:49:11.874Z,18.53
2018-07-22T20:51:40.586Z,20.43
2018-07-22T20:54:09.568Z,21.43
2018-07-22T20:56:38.646Z,18.60
2018-07-22T20:59:07.704Z,22.10
2018-07-22T21:01:36.772Z,21.93
2018-07-22T21:04:05.955Z,21.67
2018-07-22T21:06:35.063Z,22.45
2018-07-22T21:09:06.028Z,22.23
2018-07-22T21:13:46.958Z,22.67
2018-07-22T21:16:15.732Z,22.40
2018-07-22T21:18:44.676Z,23.02
2018-07-22T21:21:13.763Z,22.35
2018-07-22T21:23:42.891Z,21.80
2018-07-22T21:26:11.972Z,21.65
2018-07-22T21:28:41.004Z,22.00
2018-07-22T21:31:10.060Z,23.92
2018-07-22T21:33:39.131Z,24.52
2018-07-22T21:36:08.282Z,22.48
2018-07-22T21:38:37.436Z,22.73
2018-07-22T21:41:06.522Z,21.82
2018-07-22T21:43:35.560Z,20.57
2018-07-22T21:46:04.635Z,20.40
2018-07-22T21:48:33.745Z,21.30
2018-07-22T21:51:02.797Z,21.30
2018-07-22T21:53:31.828Z,22.77
2018-07-22T21:56:00.890Z,21.90
2018-07-22T21:58:29.928Z,21.95
2018-07-22T22:00:58.992Z,22.37
2018-07-22T22:03:28.055Z,22.35
2018-07-22T22:05:57.147Z,21.62
2018-07-22T22:08:26.180Z,22.22
